Terminal Aerodrome Forecast
Issued by NWS Missoula, MT

Home | Current Version | Previous Version | Text Only | Print | Product List | Glossary On
Versions: 1 2 3 4 5 6 7 8 9 10 11 12 13 14 15 16 17 18 19 20 21 22 23 24 25
786
FTUS45 KMSO 280249 AAA
TAFMSO
TAF AMD
KMSO 280249Z 2803/2824 35007KT P6SM VCSH BKN060
     FM280400 VRB04KT P6SM SCT100
     FM282100 30011G18KT P6SM SCT120=

USA.gov is the U.S. government's official web portal to all federal, state and local government web resources and services.